sensor_id;sensor_type;location;lat;lon;timestamp;pressure;altitude;pressure_sealevel;temperature;humidity
62402;BME280;48440;51.224;22.506;2023-05-25T00:01:11;99398.63;;;18.02;66.93
62402;BME280;48440;51.224;22.506;2023-05-25T00:03:36;99400.03;;;17.99;66.64
62402;BME280;48440;51.224;22.506;2023-05-25T00:06:06;99407.75;;;17.97;66.57
62402;BME280;48440;51.224;22.506;2023-05-25T00:08:31;99404.09;;;17.88;66.89
62402;BME280;48440;51.224;22.506;2023-05-25T00:10:57;99404.16;;;17.83;66.80
62402;BME280;48440;51.224;22.506;2023-05-25T00:13:22;99407.28;;;17.76;67.03
62402;BME280;48440;51.224;22.506;2023-05-25T00:15:48;99409.81;;;17.73;66.84
62402;BME280;48440;51.224;22.506;2023-05-25T00:18:13;99417.00;;;17.69;67.19
62402;BME280;48440;51.224;22.506;2023-05-25T00:20:39;99418.75;;;17.65;66.99
62402;BME280;48440;51.224;22.506;2023-05-25T00:23:04;99412.41;;;17.64;66.82
62402;BME280;48440;51.224;22.506;2023-05-25T00:25:30;99419.38;;;17.56;66.77
62402;BME280;48440;51.224;22.506;2023-05-25T00:27:55;99416.63;;;17.56;66.82
62402;BME280;48440;51.224;22.506;2023-05-25T00:30:21;99422.63;;;17.58;66.28
62402;BME280;48440;51.224;22.506;2023-05-25T00:32:46;99422.34;;;17.60;66.50
62402;BME280;48440;51.224;22.506;2023-05-25T00:35:12;99417.75;;;17.55;66.23
62402;BME280;48440;51.224;22.506;2023-05-25T00:37:37;99428.56;;;17.47;66.36
62402;BME280;48440;51.224;22.506;2023-05-25T00:40:03;99416.94;;;17.36;66.80
62402;BME280;48440;51.224;22.506;2023-05-25T00:42:31;99418.28;;;17.39;66.38
62402;BME280;48440;51.224;22.506;2023-05-25T00:44:57;99420.34;;;17.28;66.92
62402;BME280;48440;51.224;22.506;2023-05-25T00:47:23;99416.41;;;17.34;66.69
62402;BME280;48440;51.224;22.506;2023-05-25T00:49:49;99418.34;;;17.34;66.38
62402;BME280;48440;51.224;22.506;2023-05-25T00:52:15;99422.47;;;17.31;66.69
62402;BME280;48440;51.224;22.506;2023-05-25T00:54:40;99418.19;;;17.25;66.57
62402;BME280;48440;51.224;22.506;2023-05-25T00:57:07;99428.09;;;17.21;66.76
62402;BME280;48440;51.224;22.506;2023-05-25T01:02:09;99415.88;;;17.13;67.07
62402;BME280;48440;51.224;22.506;2023-05-25T01:05:02;99415.13;;;17.08;67.25
62402;BME280;48440;51.224;22.506;2023-05-25T01:07:31;99407.78;;;17.03;67.17
62402;BME280;48440;51.224;22.506;2023-05-25T01:10:00;99407.19;;;17.06;67.36
62402;BME280;48440;51.224;22.506;2023-05-25T01:12:29;99404.75;;;17.05;67.50
62402;BME280;48440;51.224;22.506;2023-05-25T01:14:57;99416.59;;;17.00;67.46
62402;BME280;48440;51.224;22.506;2023-05-25T01:17:24;99416.38;;;16.96;67.72
62402;BME280;48440;51.224;22.506;2023-05-25T01:19:50;99420.16;;;17.01;67.88
62402;BME280;48440;51.224;22.506;2023-05-25T01:22:22;99416.31;;;17.02;67.76
62402;BME280;48440;51.224;22.506;2023-05-25T01:24:55;99419.69;;;16.93;68.30
62402;BME280;48440;51.224;22.506;2023-05-25T01:27:37;99419.78;;;16.88;68.38
62402;BME280;48440;51.224;22.506;2023-05-25T01:30:05;99426.94;;;16.84;68.44
62402;BME280;48440;51.224;22.506;2023-05-25T01:32:34;99429.94;;;16.88;68.50
62402;BME280;48440;51.224;22.506;2023-05-25T01:35:03;99433.97;;;16.90;68.44
62402;BME280;48440;51.224;22.506;2023-05-25T01:37:29;99433.09;;;16.95;68.23
62402;BME280;48440;51.224;22.506;2023-05-25T01:39:55;99428.44;;;16.95;68.22
62402;BME280;48440;51.224;22.506;2023-05-25T01:42:21;99427.03;;;16.98;68.09
62402;BME280;48440;51.224;22.506;2023-05-25T01:44:47;99416.59;;;17.00;68.17
62402;BME280;48440;51.224;22.506;2023-05-25T01:47:20;99422.38;;;16.99;68.06
62402;BME280;48440;51.224;22.506;2023-05-25T01:52:38;99419.09;;;16.96;67.98
62402;BME280;48440;51.224;22.506;2023-05-25T01:55:11;99422.13;;;16.95;68.13
62402;BME280;48440;51.224;22.506;2023-05-25T01:57:40;99428.81;;;16.89;68.28
62402;BME280;48440;51.224;22.506;2023-05-25T02:00:09;99425.75;;;16.90;67.85
62402;BME280;48440;51.224;22.506;2023-05-25T02:02:37;99425.25;;;16.88;68.29
62402;BME280;48440;51.224;22.506;2023-05-25T02:05:03;99420.06;;;16.87;67.90
62402;BME280;48440;51.224;22.506;2023-05-25T02:07:29;99425.25;;;16.88;68.03
62402;BME280;48440;51.224;22.506;2023-05-25T02:09:54;99426.06;;;16.89;67.70
62402;BME280;48440;51.224;22.506;2023-05-25T02:12:19;99423.91;;;16.86;67.88
62402;BME280;48440;51.224;22.506;2023-05-25T02:14:45;99423.09;;;16.85;67.98
62402;BME280;48440;51.224;22.506;2023-05-25T02:17:13;99416.91;;;16.75;68.12
62402;BME280;48440;51.224;22.506;2023-05-25T02:19:38;99411.44;;;16.75;68.26
62402;BME280;48440;51.224;22.506;2023-05-25T02:22:04;99418.84;;;16.74;68.09
62402;BME280;48440;51.224;22.506;2023-05-25T02:24:29;99415.50;;;16.77;68.21
62402;BME280;48440;51.224;22.506;2023-05-25T02:26:55;99422.91;;;16.77;67.79
62402;BME280;48440;51.224;22.506;2023-05-25T02:29:20;99425.91;;;16.80;67.52
62402;BME280;48440;51.224;22.506;2023-05-25T02:31:46;99427.53;;;16.81;67.74
62402;BME280;48440;51.224;22.506;2023-05-25T02:34:11;99432.47;;;16.79;67.47
62402;BME280;48440;51.224;22.506;2023-05-25T02:36:38;99425.66;;;16.77;67.18
62402;BME280;48440;51.224;22.506;2023-05-25T02:39:03;99433.34;;;16.75;67.44
62402;BME280;48440;51.224;22.506;2023-05-25T02:41:29;99430.19;;;16.62;68.05
62402;BME280;48440;51.224;22.506;2023-05-25T02:43:55;99434.28;;;16.65;68.20
62402;BME280;48440;51.224;22.506;2023-05-25T02:46:20;99426.88;;;16.66;67.52
62402;BME280;48440;51.224;22.506;2023-05-25T02:48:47;99429.31;;;16.67;67.23
62402;BME280;48440;51.224;22.506;2023-05-25T02:51:12;99443.88;;;16.62;67.68
62402;BME280;48440;51.224;22.506;2023-05-25T02:53:37;99429.91;;;16.64;67.48
62402;BME280;48440;51.224;22.506;2023-05-25T02:56:03;99430.19;;;16.62;67.81
62402;BME280;48440;51.224;22.506;2023-05-25T02:58:30;99434.31;;;16.60;67.68
62402;BME280;48440;51.224;22.506;2023-05-25T03:00:55;99437.88;;;16.60;68.20
62402;BME280;48440;51.224;22.506;2023-05-25T03:03:24;99434.63;;;16.58;68.04
62402;BME280;48440;51.224;22.506;2023-05-25T03:05:50;99435.44;;;16.59;67.88
62402;BME280;48440;51.224;22.506;2023-05-25T03:08:15;99438.94;;;16.65;67.84
62402;BME280;48440;51.224;22.506;2023-05-25T03:10:41;99441.38;;;16.66;67.80
62402;BME280;48440;51.224;22.506;2023-05-25T03:13:06;99436.72;;;16.67;67.68
62402;BME280;48440;51.224;22.506;2023-05-25T03:15:31;99436.44;;;16.68;67.38
62402;BME280;48440;51.224;22.506;2023-05-25T03:17:57;99438.94;;;16.65;67.69
62402;BME280;48440;51.224;22.506;2023-05-25T03:20:26;99447.72;;;16.61;67.84
62402;BME280;48440;51.224;22.506;2023-05-25T03:22:51;99442.78;;;16.63;67.92
62402;BME280;48440;51.224;22.506;2023-05-25T03:25:17;99450.44;;;16.67;67.82
62402;BME280;48440;51.224;22.506;2023-05-25T03:27:42;99450.16;;;16.63;67.75
62402;BME280;48440;51.224;22.506;2023-05-25T03:30:08;99460.84;;;16.65;67.77
62402;BME280;48440;51.224;22.506;2023-05-25T03:32:34;99465.28;;;16.60;68.01
62402;BME280;48440;51.224;22.506;2023-05-25T03:35:00;99464.75;;;16.58;68.07
62402;BME280;48440;51.224;22.506;2023-05-25T03:37:25;99470.50;;;16.57;68.08
62402;BME280;48440;51.224;22.506;2023-05-25T03:39:51;99468.06;;;16.55;67.81
62402;BME280;48440;51.224;22.506;2023-05-25T03:42:16;99471.03;;;16.59;67.84
62402;BME280;48440;51.224;22.506;2023-05-25T03:44:42;99470.22;;;16.58;67.69
62402;BME280;48440;51.224;22.506;2023-05-25T03:47:07;99465.00;;;16.62;67.51
62402;BME280;48440;51.224;22.506;2023-05-25T03:49:33;99477.91;;;16.56;67.61
62402;BME280;48440;51.224;22.506;2023-05-25T03:51:58;99474.06;;;16.57;67.54
62402;BME280;48440;51.224;22.506;2023-05-25T03:54:25;99476.81;;;16.57;67.95
62402;BME280;48440;51.224;22.506;2023-05-25T03:56:51;99479.25;;;16.59;67.87
62402;BME280;48440;51.224;22.506;2023-05-25T03:59:16;99487.78;;;16.57;67.99
62402;BME280;48440;51.224;22.506;2023-05-25T04:01:43;99476.22;;;16.60;68.15
62402;BME280;48440;51.224;22.506;2023-05-25T04:04:08;99479.56;;;16.57;68.21
62402;BME280;48440;51.224;22.506;2023-05-25T04:06:34;99485.59;;;16.54;68.35
62402;BME280;48440;51.224;22.506;2023-05-25T04:09:02;99487.53;;;16.54;68.30
62402;BME280;48440;51.224;22.506;2023-05-25T04:11:28;99486.41;;;16.55;67.83
62402;BME280;48440;51.224;22.506;2023-05-25T04:13:54;99487.78;;;16.57;67.94
62402;BME280;48440;51.224;22.506;2023-05-25T04:16:20;99497.09;;;16.56;67.82
62402;BME280;48440;51.224;22.506;2023-05-25T04:18:46;99498.25;;;16.50;67.99
62402;BME280;48440;51.224;22.506;2023-05-25T04:21:11;99507.81;;;16.53;67.70
62402;BME280;48440;51.224;22.506;2023-05-25T04:23:36;99507.81;;;16.53;68.05
62402;BME280;48440;51.224;22.506;2023-05-25T04:26:02;99509.44;;;16.54;67.97
62402;BME280;48440;51.224;22.506;2023-05-25T04:28:28;99500.44;;;16.48;68.23
62402;BME280;48440;51.224;22.506;2023-05-25T04:30:53;99510.88;;;16.46;68.47
62402;BME280;48440;51.224;22.506;2023-05-25T04:33:22;99512.84;;;16.41;68.76
62402;BME280;48440;51.224;22.506;2023-05-25T04:35:49;99509.84;;;16.37;68.74
62402;BME280;48440;51.224;22.506;2023-05-25T04:38:15;99507.66;;;16.39;68.70
62402;BME280;48440;51.224;22.506;2023-05-25T04:40:44;99512.31;;;16.39;68.81
62402;BME280;48440;51.224;22.506;2023-05-25T04:43:12;99516.47;;;16.36;68.71
62402;BME280;48440;51.224;22.506;2023-05-25T04:45:42;99520.03;;;16.37;68.69
62402;BME280;48440;51.224;22.506;2023-05-25T04:48:08;99522.44;;;16.38;68.84
62402;BME280;48440;51.224;22.506;2023-05-25T04:50:33;99517.59;;;16.30;68.82
62402;BME280;48440;51.224;22.506;2023-05-25T04:52:59;99519.25;;;16.31;68.56
62402;BME280;48440;51.224;22.506;2023-05-25T04:55:24;99525.00;;;16.29;68.82
62402;BME280;48440;51.224;22.506;2023-05-25T04:57:50;99517.88;;;16.28;68.86
62402;BME280;48440;51.224;22.506;2023-05-25T05:00:18;99527.44;;;16.31;68.93
62402;BME280;48440;51.224;22.506;2023-05-25T05:02:44;99527.69;;;16.35;68.72
62402;BME280;48440;51.224;22.506;2023-05-25T05:05:10;99529.09;;;16.32;68.61
62402;BME280;48440;51.224;22.506;2023-05-25T05:07:35;99535.66;;;16.31;69.24
62402;BME280;48440;51.224;22.506;2023-05-25T05:10:02;99536.19;;;16.33;69.09
62402;BME280;48440;51.224;22.506;2023-05-25T05:12:28;99540.03;;;16.32;69.19
62402;BME280;48440;51.224;22.506;2023-05-25T05:14:54;99538.44;;;16.26;69.54
62402;BME280;48440;51.224;22.506;2023-05-25T05:17:20;99548.28;;;16.27;69.50
62402;BME280;48440;51.224;22.506;2023-05-25T05:19:45;99543.06;;;16.31;69.51
62402;BME280;48440;51.224;22.506;2023-05-25T05:22:11;99552.06;;;16.36;69.22
62402;BME280;48440;51.224;22.506;2023-05-25T05:24:39;99544.41;;;16.33;68.84
62402;BME280;48440;51.224;22.506;2023-05-25T05:27:05;99553.19;;;16.30;68.72
62402;BME280;48440;51.224;22.506;2023-05-25T05:29:30;99551.28;;;16.31;69.10
62402;BME280;48440;51.224;22.506;2023-05-25T05:31:56;99561.69;;;16.28;69.21
62402;BME280;48440;51.224;22.506;2023-05-25T05:34:21;99558.69;;;16.30;69.59
62402;BME280;48440;51.224;22.506;2023-05-25T05:36:46;99559.25;;;16.27;69.55
62402;BME280;48440;51.224;22.506;2023-05-25T05:39:12;99559.78;;;16.29;69.55
62402;BME280;48440;51.224;22.506;2023-05-25T05:41:38;99566.31;;;16.33;69.08
62402;BME280;48440;51.224;22.506;2023-05-25T05:44:07;99563.06;;;16.31;69.20
62402;BME280;48440;51.224;22.506;2023-05-25T05:46:33;99565.25;;;16.29;69.87
62402;BME280;48440;51.224;22.506;2023-05-25T05:48:58;99567.97;;;16.34;69.55
62402;BME280;48440;51.224;22.506;2023-05-25T05:51:23;99554.56;;;16.33;69.74
62402;BME280;48440;51.224;22.506;2023-05-25T05:53:49;99565.75;;;16.36;69.74
62402;BME280;48440;51.224;22.506;2023-05-25T05:56:18;99567.97;;;16.34;69.97
62402;BME280;48440;51.224;22.506;2023-05-25T05:58:43;99566.78;;;16.40;69.56
62402;BME280;48440;51.224;22.506;2023-05-25T06:01:09;99580.19;;;16.42;69.21
62402;BME280;48440;51.224;22.506;2023-05-25T06:03:34;99573.91;;;16.41;68.98
62402;BME280;48440;51.224;22.506;2023-05-25T06:06:00;99583.47;;;16.44;69.13
62402;BME280;48440;51.224;22.506;2023-05-25T06:08:25;99578.28;;;16.42;69.36
62402;BME280;48440;51.224;22.506;2023-05-25T06:10:51;99584.56;;;16.43;69.33
62402;BME280;48440;51.224;22.506;2023-05-25T06:13:17;99586.75;;;16.46;69.35
62402;BME280;48440;51.224;22.506;2023-05-25T06:15:42;99587.56;;;16.46;69.21
62402;BME280;48440;51.224;22.506;2023-05-25T06:18:08;99582.28;;;16.55;69.69
62402;BME280;48440;51.224;22.506;2023-05-25T06:20:33;99588.81;;;16.64;69.08
62402;BME280;48440;51.224;22.506;2023-05-25T06:22:59;99592.69;;;16.58;69.56
62402;BME280;48440;51.224;22.506;2023-05-25T06:25:25;99593.53;;;16.53;69.42
62402;BME280;48440;51.224;22.506;2023-05-25T06:27:50;99604.53;;;16.48;69.56
62402;BME280;48440;51.224;22.506;2023-05-25T06:30:16;99598.78;;;16.50;69.19
62402;BME280;48440;51.224;22.506;2023-05-25T06:32:42;99600.22;;;16.37;69.86
62402;BME280;48440;51.224;22.506;2023-05-25T06:35:08;99598.91;;;16.35;69.48
62402;BME280;48440;51.224;22.506;2023-05-25T06:37:33;99596.19;;;16.29;70.06
62402;BME280;48440;51.224;22.506;2023-05-25T06:40:05;99599.75;;;16.30;69.65
62402;BME280;48440;51.224;22.506;2023-05-25T06:42:33;99603.88;;;16.27;70.29
62402;BME280;48440;51.224;22.506;2023-05-25T06:44:58;99599.75;;;16.30;70.44
62402;BME280;48440;51.224;22.506;2023-05-25T06:47:24;99597.25;;;16.34;70.10
62402;BME280;48440;51.224;22.506;2023-05-25T06:49:50;99607.34;;;16.38;70.46
62402;BME280;48440;51.224;22.506;2023-05-25T06:52:15;99615.28;;;16.40;70.22
62402;BME280;48440;51.224;22.506;2023-05-25T06:54:40;99608.41;;;16.42;69.98
62402;BME280;48440;51.224;22.506;2023-05-25T06:57:06;99614.41;;;16.44;69.53
62402;BME280;48440;51.224;22.506;2023-05-25T06:59:32;99605.41;;;16.39;69.92
62402;BME280;48440;51.224;22.506;2023-05-25T07:01:58;99603.22;;;16.41;70.15
62402;BME280;48440;51.224;22.506;2023-05-25T07:04:23;99614.09;;;16.51;69.96
62402;BME280;48440;51.224;22.506;2023-05-25T07:06:49;99611.84;;;16.58;69.59
62402;BME280;48440;51.224;22.506;2023-05-25T07:09:16;99622.00;;;16.57;70.04
62402;BME280;48440;51.224;22.506;2023-05-25T07:11:41;99619.84;;;16.54;69.67
62402;BME280;48440;51.224;22.506;2023-05-25T07:14:07;99619.53;;;16.56;69.89
62402;BME280;48440;51.224;22.506;2023-05-25T07:16:32;99625.81;;;16.61;69.42
62402;BME280;48440;51.224;22.506;2023-05-25T07:18:58;99617.28;;;16.63;69.25
62402;BME280;48440;51.224;22.506;2023-05-25T07:21:24;99622.75;;;16.68;69.58
62402;BME280;48440;51.224;22.506;2023-05-25T07:23:49;99625.16;;;16.75;69.47
62402;BME280;48440;51.224;22.506;2023-05-25T07:26:15;99624.63;;;16.73;69.85
62402;BME280;48440;51.224;22.506;2023-05-25T07:28:40;99618.88;;;16.74;69.04
62402;BME280;48440;51.224;22.506;2023-05-25T07:31:07;99628.47;;;16.72;69.15
62402;BME280;48440;51.224;22.506;2023-05-25T07:33:32;99620.50;;;16.75;69.01
62402;BME280;48440;51.224;22.506;2023-05-25T07:35:58;99616.88;;;16.85;69.12
62402;BME280;48440;51.224;22.506;2023-05-25T07:38:23;99620.97;;;16.87;69.51
62402;BME280;48440;51.224;22.506;2023-05-25T07:40:49;99612.66;;;16.92;68.95
62402;BME280;48440;51.224;22.506;2023-05-25T07:43:16;99610.41;;;17.00;68.46
62402;BME280;48440;51.224;22.506;2023-05-25T07:45:42;99605.97;;;17.04;68.69
62402;BME280;48440;51.224;22.506;2023-05-25T07:48:07;99604.88;;;17.05;68.75
62402;BME280;48440;51.224;22.506;2023-05-25T07:50:34;99613.91;;;17.05;68.92
62402;BME280;48440;51.224;22.506;2023-05-25T07:52:59;99606.75;;;17.09;68.59
62402;BME280;48440;51.224;22.506;2023-05-25T07:55:25;99617.72;;;17.09;69.05
62402;BME280;48440;51.224;22.506;2023-05-25T07:57:51;99618.78;;;17.13;68.92
62402;BME280;48440;51.224;22.506;2023-05-25T08:00:17;99617.31;;;17.21;68.72
62402;BME280;48440;51.224;22.506;2023-05-25T08:02:43;99618.03;;;17.32;68.65
62402;BME280;48440;51.224;22.506;2023-05-25T08:05:09;99621.53;;;17.37;68.62
62402;BME280;48440;51.224;22.506;2023-05-25T08:07:34;99618.50;;;17.39;68.36
62402;BME280;48440;51.224;22.506;2023-05-25T08:10:00;99621.25;;;17.39;68.11
62402;BME280;48440;51.224;22.506;2023-05-25T08:12:26;99630.78;;;17.41;67.52
62402;BME280;48440;51.224;22.506;2023-05-25T08:14:52;99625.00;;;17.43;66.92
62402;BME280;48440;51.224;22.506;2023-05-25T08:17:19;99624.09;;;17.52;66.58
62402;BME280;48440;51.224;22.506;2023-05-25T08:19:44;99634.91;;;17.68;67.73
62402;BME280;48440;51.224;22.506;2023-05-25T08:22:10;99632.66;;;17.93;67.32
62402;BME280;48440;51.224;22.506;2023-05-25T08:24:35;99628.53;;;18.15;66.63
62402;BME280;48440;51.224;22.506;2023-05-25T08:27:01;99623.84;;;18.34;66.27
62402;BME280;48440;51.224;22.506;2023-05-25T08:29:26;99628.16;;;18.40;65.84
62402;BME280;48440;51.224;22.506;2023-05-25T08:31:52;99631.75;;;18.54;66.23
62402;BME280;48440;51.224;22.506;2023-05-25T08:34:18;99630.78;;;18.83;64.90
62402;BME280;48440;51.224;22.506;2023-05-25T08:36:43;99620.53;;;19.02;65.05
62402;BME280;48440;51.224;22.506;2023-05-25T08:39:09;99623.22;;;19.21;63.82
62402;BME280;48440;51.224;22.506;2023-05-25T08:41:36;99630.28;;;19.41;62.96
62402;BME280;48440;51.224;22.506;2023-05-25T08:44:05;99625.09;;;19.67;62.11
62402;BME280;48440;51.224;22.506;2023-05-25T08:46:32;99623.88;;;19.73;62.01
62402;BME280;48440;51.224;22.506;2023-05-25T08:49:08;99624.06;;;19.90;61.45
62402;BME280;48440;51.224;22.506;2023-05-25T08:51:37;99627.63;;;19.90;62.09
62402;BME280;48440;51.224;22.506;2023-05-25T08:54:09;99632.78;;;20.06;62.75
62402;BME280;48440;51.224;22.506;2023-05-25T08:56:48;99634.13;;;20.08;62.07
62402;BME280;48440;51.224;22.506;2023-05-25T09:01:49;99637.53;;;19.78;61.80
62402;BME280;48440;51.224;22.506;2023-05-25T09:04:16;99639.06;;;19.70;62.72
62402;BME280;48440;51.224;22.506;2023-05-25T09:06:44;99631.31;;;19.72;62.61
62402;BME280;48440;51.224;22.506;2023-05-25T09:09:10;99635.88;;;19.90;62.61
62402;BME280;48440;51.224;22.506;2023-05-25T09:11:40;99628.53;;;19.86;62.94
62402;BME280;48440;51.224;22.506;2023-05-25T09:14:07;99633.03;;;19.95;62.41
62402;BME280;48440;51.224;22.506;2023-05-25T09:16:35;99624.72;;;20.09;63.25
62402;BME280;48440;51.224;22.506;2023-05-25T09:19:01;99633.66;;;20.28;62.09
62402;BME280;48440;51.224;22.506;2023-05-25T09:21:27;99627.94;;;20.39;61.92
62402;BME280;48440;51.224;22.506;2023-05-25T09:23:53;99628.88;;;20.56;61.34
62402;BME280;48440;51.224;22.506;2023-05-25T09:26:18;99621.41;;;20.79;60.85
62402;BME280;48440;51.224;22.506;2023-05-25T09:28:47;99628.00;;;20.92;60.65
62402;BME280;48440;51.224;22.506;2023-05-25T09:31:14;99629.69;;;21.02;58.87
62402;BME280;48440;51.224;22.506;2023-05-25T09:33:40;99633.41;;;20.97;58.03
62402;BME280;48440;51.224;22.506;2023-05-25T09:36:06;99626.22;;;21.18;58.30
62402;BME280;48440;51.224;22.506;2023-05-25T09:38:33;99631.69;;;21.41;58.40
62402;BME280;48440;51.224;22.506;2023-05-25T09:40:58;99630.19;;;21.34;58.76
62402;BME280;48440;51.224;22.506;2023-05-25T09:43:24;99622.66;;;21.57;58.77
62402;BME280;48440;51.224;22.506;2023-05-25T09:45:53;99637.53;;;21.79;58.89
62402;BME280;48440;51.224;22.506;2023-05-25T09:48:20;99626.88;;;22.12;58.14
62402;BME280;48440;51.224;22.506;2023-05-25T09:50:46;99629.00;;;22.06;56.62
62402;BME280;48440;51.224;22.506;2023-05-25T09:53:11;99624.94;;;22.04;56.75
62402;BME280;48440;51.224;22.506;2023-05-25T09:55:37;99626.47;;;21.87;57.02
62402;BME280;48440;51.224;22.506;2023-05-25T09:58:03;99632.75;;;21.62;56.04
62402;BME280;48440;51.224;22.506;2023-05-25T10:00:29;99638.53;;;21.43;56.50
62402;BME280;48440;51.224;22.506;2023-05-25T10:02:54;99633.88;;;21.21;56.75
62402;BME280;48440;51.224;22.506;2023-05-25T10:05:20;99632.97;;;21.04;57.75
62402;BME280;48440;51.224;22.506;2023-05-25T10:07:46;99640.63;;;21.15;58.61
62402;BME280;48440;51.224;22.506;2023-05-25T10:10:14;99635.31;;;21.19;59.46
62402;BME280;48440;51.224;22.506;2023-05-25T10:12:42;99634.81;;;21.17;58.93
62402;BME280;48440;51.224;22.506;2023-05-25T10:15:10;99633.59;;;21.31;59.79
62402;BME280;48440;51.224;22.506;2023-05-25T10:17:42;99635.13;;;21.46;59.74
62402;BME280;48440;51.224;22.506;2023-05-25T10:20:09;99628.19;;;21.57;58.98
62402;BME280;48440;51.224;22.506;2023-05-25T10:28:00;99630.69;;;21.85;58.16
62402;BME280;48440;51.224;22.506;2023-05-25T10:30:26;99626.28;;;21.66;57.93
62402;BME280;48440;51.224;22.506;2023-05-25T10:32:54;99635.81;;;21.52;58.10
62402;BME280;48440;51.224;22.506;2023-05-25T10:35:20;99624.47;;;21.62;58.67
62402;BME280;48440;51.224;22.506;2023-05-25T10:37:46;99622.31;;;21.50;58.11
62402;BME280;48440;51.224;22.506;2023-05-25T10:40:12;99630.56;;;21.42;58.96
62402;BME280;48440;51.224;22.506;2023-05-25T10:42:40;99632.88;;;21.57;59.92
62402;BME280;48440;51.224;22.506;2023-05-25T10:45:07;99622.72;;;21.75;60.12
62402;BME280;48440;51.224;22.506;2023-05-25T10:47:35;99624.53;;;21.88;59.12
62402;BME280;48440;51.224;22.506;2023-05-25T10:50:01;99623.22;;;21.85;59.93
62402;BME280;48440;51.224;22.506;2023-05-25T10:52:28;99623.91;;;21.91;60.26
62402;BME280;48440;51.224;22.506;2023-05-25T10:54:56;99617.56;;;21.90;59.70
62402;BME280;48440;51.224;22.506;2023-05-25T10:57:23;99613.81;;;21.86;58.86
62402;BME280;48440;51.224;22.506;2023-05-25T11:00:00;99619.19;;;21.91;59.37
62402;BME280;48440;51.224;22.506;2023-05-25T11:02:27;99621.59;;;21.84;58.75
62402;BME280;48440;51.224;22.506;2023-05-25T11:07:57;99617.06;;;21.88;58.35
62402;BME280;48440;51.224;22.506;2023-05-25T11:18:37;99613.19;;;21.98;58.92
62402;BME280;48440;51.224;22.506;2023-05-25T11:21:21;99614.94;;;21.85;58.51
62402;BME280;48440;51.224;22.506;2023-05-25T11:24:01;99616.06;;;21.76;59.07
62402;BME280;48440;51.224;22.506;2023-05-25T11:26:29;99619.63;;;21.67;59.57
62402;BME280;48440;51.224;22.506;2023-05-25T11:28:56;99607.56;;;21.63;59.46
62402;BME280;48440;51.224;22.506;2023-05-25T11:31:29;99604.38;;;21.79;60.42
62402;BME280;48440;51.224;22.506;2023-05-25T11:34:01;99606.00;;;21.88;59.89
62402;BME280;48440;51.224;22.506;2023-05-25T11:36:29;99607.16;;;21.96;59.30
62402;BME280;48440;51.224;22.506;2023-05-25T11:39:03;99610.91;;;21.91;59.61
62402;BME280;48440;51.224;22.506;2023-05-25T11:41:29;99607.50;;;21.94;60.02
62402;BME280;48440;51.224;22.506;2023-05-25T11:44:05;99600.38;;;22.11;59.95
62402;BME280;48440;51.224;22.506;2023-05-25T11:46:31;99599.56;;;22.10;60.04
62402;BME280;48440;51.224;22.506;2023-05-25T11:48:58;99597.63;;;22.02;60.29
62402;BME280;48440;51.224;22.506;2023-05-25T11:51:28;99598.06;;;21.95;60.23
62402;BME280;48440;51.224;22.506;2023-05-25T11:53:53;99593.16;;;21.84;59.44
62402;BME280;48440;51.224;22.506;2023-05-25T11:56:19;99600.81;;;21.78;60.14
62402;BME280;48440;51.224;22.506;2023-05-25T11:58:47;99604.34;;;21.70;59.83
62402;BME280;48440;51.224;22.506;2023-05-25T12:01:19;99603.63;;;21.47;60.59
62402;BME280;48440;51.224;22.506;2023-05-25T12:03:51;99591.59;;;21.43;61.14
62402;BME280;48440;51.224;22.506;2023-05-25T12:06:32;99604.41;;;21.30;62.07
62402;BME280;48440;51.224;22.506;2023-05-25T12:08:59;99598.38;;;21.28;62.25
62402;BME280;48440;51.224;22.506;2023-05-25T12:13:58;99593.22;;;21.44;61.25
62402;BME280;48440;51.224;22.506;2023-05-25T12:16:24;99589.34;;;21.45;61.12
62402;BME280;48440;51.224;22.506;2023-05-25T12:18:50;99582.69;;;21.46;60.98
62402;BME280;48440;51.224;22.506;2023-05-25T12:21:17;99583.31;;;21.43;61.17
62402;BME280;48440;51.224;22.506;2023-05-25T12:23:43;99580.88;;;21.42;60.93
62402;BME280;48440;51.224;22.506;2023-05-25T12:26:12;99576.16;;;21.42;60.38
62402;BME280;48440;51.224;22.506;2023-05-25T12:28:39;99575.00;;;21.34;60.16
62402;BME280;48440;51.224;22.506;2023-05-25T12:33:45;99567.34;;;21.31;61.26
62402;BME280;48440;51.224;22.506;2023-05-25T12:36:11;99568.16;;;21.32;61.35
62402;BME280;48440;51.224;22.506;2023-05-25T12:38:37;99564.13;;;21.29;61.80
62402;BME280;48440;51.224;22.506;2023-05-25T12:41:06;99566.53;;;21.31;62.61
62402;BME280;48440;51.224;22.506;2023-05-25T12:43:37;99561.38;;;21.29;62.60
62402;BME280;48440;51.224;22.506;2023-05-25T12:46:02;99556.31;;;21.31;63.08
62402;BME280;48440;51.224;22.506;2023-05-25T12:48:28;99557.31;;;21.27;63.30
62402;BME280;48440;51.224;22.506;2023-05-25T12:50:57;99561.13;;;21.17;62.39
62402;BME280;48440;51.224;22.506;2023-05-25T12:53:22;99551.34;;;21.11;62.36
62402;BME280;48440;51.224;22.506;2023-05-25T12:55:48;99554.59;;;21.13;62.22
62402;BME280;48440;51.224;22.506;2023-05-25T12:58:26;99556.69;;;21.08;61.89
62402;BME280;48440;51.224;22.506;2023-05-25T13:00:52;99555.84;;;20.98;62.24
62402;BME280;48440;51.224;22.506;2023-05-25T13:03:17;99552.28;;;20.98;62.35
62402;BME280;48440;51.224;22.506;2023-05-25T13:05:43;99553.41;;;20.97;63.33
62402;BME280;48440;51.224;22.506;2023-05-25T13:08:10;99546.75;;;20.98;64.17
62402;BME280;48440;51.224;22.506;2023-05-25T13:10:36;99532.97;;;20.98;64.25
62402;BME280;48440;51.224;22.506;2023-05-25T13:13:02;99535.41;;;20.99;64.23
62402;BME280;48440;51.224;22.506;2023-05-25T13:15:28;99530.03;;;20.94;63.86
62402;BME280;48440;51.224;22.506;2023-05-25T13:17:55;99528.41;;;20.93;63.96